Airfield :
LOGIN :

Register | Disclaimer

   EN    FR    IT 

 










Legend :    VFR   Marginal VFR   IFR   Intensive IFR   Very Intensive IFR
Visi :
Ceiling :
>= 8 km
>= 3000ft
5 to 8 km
1000 to 3000 ft
1500m to 5 km
500 to 1000 ft
800 to 1500m
200 to 500 ft
< 800m
< 200 ft
Symbols :   Thunderstorms  Fog  Heavy snow  Heavy precipitations  Wind > 20 kt
SIGMETs :     Misc.  Thunderstorms  Icing  Turbulence  Mountain Waves  Volcanic Ashes






- Airport Elevation : 325 ft
- IATA code : POX


LFPT - Pontoise

CURRENT METAR :
  • 041100Z AUTO VRB04KT CAVOK 23/10 Q1021

EXPIRED METARs :
  • 041030Z AUTO VRB03KT 9999 BKN047 23/11 Q1022
  • 041000Z AUTO 32005KT 240V040 9999 FEW043 21/09 Q1022
  • 040930Z AUTO 25005KT 200V320 9999 FEW001 21/10 Q1022
  • 040900Z AUTO VRB02KT CAVOK 20/12 Q1022
  • 040830Z AUTO VRB03KT 9999 FEW026 19/11 Q1022

TAF N/A
ATIS : +33 1 30 30 52 08



MET'MAP, your aeronautical weather chart ! - Copyright ORBIFLY December 2007 - Disclaimer

ORBIFLY MET'MAP TEAM :

Programming & Development : Alexandra Zaïnal
Original concept : Baudouin d'Aumeries
Technical & hardware support : Manuel Goepfert
Assistance : Marc-Olivier Méhu




SOURCES & CREDITS :

   NOAA